RYR159M EDDK-LEPA
Flight info
| Callsign | RYR159M |
|---|---|
| Flight time | 2h 7m |
| Altitude | 37000 |
| Route | NVO3P NVO Y868 NAVAK Z283 SOPOK DCT ROUSY DCT GTQ DCT POGOL DCT LASAT DCT MOROK DCT GILIR DCT GEVEA DCT INCUS DCT BALSI DCT RETNO DCT TUPOX DCT MTG DCT DIVKO DCT VATIR DCT PIVUS DCT BODEQ DCT VERSO L129 LUNIK |
| Aircraft | A320/M-SDE3FGHIRWY/LB1 |
Departure
| Time | 2026-05-04 06:41 |
|---|---|
| Airport | Cologne Bonn Airport (EDDK) |
Arrival
| Time | 2026-05-04 08:48 |
|---|---|
| Airport | Palma de Mallorca Airport (LEPA) |
| Time | Latitude | Longitude | Altitude | Speed | Heading |
|---|---|---|---|---|---|
| 2026-05-04 06:13 | 50.87765 | 7.12413 | 239 ft | 0 kts | 289° |
| 2026-05-04 06:34 | 50.87765 | 7.12412 | 239 ft | 0 kts | 289° |
| 2026-05-04 06:34 | 50.87761 | 7.12429 | 240 ft | 2 kts | 288° |
| 2026-05-04 06:35 | 50.87756 | 7.12452 | 241 ft | 2 kts | 289° |
| 2026-05-04 06:36 | 50.87701 | 7.12516 | 242 ft | 0 kts | 19° |
| 2026-05-04 06:38 | 50.87714 | 7.12523 | 243 ft | 4 kts | 19° |
| 2026-05-04 06:40 | 50.87984 | 7.12986 | 241 ft | 18 kts | 123° |
| 2026-05-04 06:40 | 50.87852 | 7.13191 | 243 ft | 48 kts | 137° |
| 2026-05-04 06:40 | 50.87425 | 7.13809 | 247 ft | 114 kts | 137° |
| 2026-05-04 06:40 | 50.86695 | 7.14865 | 275 ft | 165 kts | 137° |
| 2026-05-04 06:41 | 50.85817 | 7.16129 | 804 ft | 170 kts | 136° |
| 2026-05-04 06:41 | 50.84943 | 7.17396 | 1468 ft | 172 kts | 137° |
| 2026-05-04 06:41 | 50.84054 | 7.18656 | 2121 ft | 176 kts | 138° |
| 2026-05-04 06:41 | 50.83099 | 7.19987 | 2587 ft | 191 kts | 139° |
| 2026-05-04 06:42 | 50.82042 | 7.21443 | 3035 ft | 209 kts | 139° |
| 2026-05-04 06:42 | 50.80865 | 7.23044 | 3417 ft | 232 kts | 144° |
| 2026-05-04 06:42 | 50.79378 | 7.24265 | 3915 ft | 249 kts | 165° |
| 2026-05-04 06:44 | 50.66304 | 7.27278 | 9492 ft | 278 kts | 182° |
| 2026-05-04 06:44 | 50.64460 | 7.26631 | 10239 ft | 274 kts | 210° |
| 2026-05-04 06:44 | 50.63014 | 7.24727 | 11006 ft | 274 kts | 234° |
| 2026-05-04 06:45 | 50.62225 | 7.22018 | 11705 ft | 279 kts | 257° |
| 2026-05-04 06:45 | 50.62263 | 7.18953 | 12370 ft | 288 kts | 282° |
| 2026-05-04 06:45 | 50.63144 | 7.16068 | 13056 ft | 296 kts | 298° |
| 2026-05-04 06:45 | 50.64228 | 7.13307 | 13711 ft | 300 kts | 297° |
| 2026-05-04 06:46 | 50.65313 | 7.10498 | 14355 ft | 304 kts | 296° |
| 2026-05-04 06:46 | 50.66403 | 7.07563 | 14814 ft | 314 kts | 296° |
| 2026-05-04 06:46 | 50.67518 | 7.04490 | 15111 ft | 329 kts | 296° |
| 2026-05-04 06:46 | 50.68666 | 7.01315 | 15486 ft | 340 kts | 296° |
| 2026-05-04 06:48 | 50.77180 | 6.77840 | 19380 ft | 363 kts | 296° |
| 2026-05-04 06:48 | 50.78428 | 6.74379 | 19918 ft | 365 kts | 296° |
| 2026-05-04 06:49 | 50.79684 | 6.70892 | 20439 ft | 367 kts | 296° |
| 2026-05-04 06:50 | 50.82552 | 6.43632 | 23835 ft | 368 kts | 268° |
| 2026-05-04 06:51 | 50.82594 | 6.39595 | 24319 ft | 369 kts | 268° |
| 2026-05-04 06:51 | 50.82635 | 6.35507 | 24784 ft | 371 kts | 268° |
| 2026-05-04 06:51 | 50.82679 | 6.31409 | 25243 ft | 373 kts | 266° |
| 2026-05-04 06:51 | 50.82722 | 6.27280 | 25678 ft | 375 kts | 266° |
| 2026-05-04 06:52 | 50.82762 | 6.23157 | 26120 ft | 376 kts | 266° |
| 2026-05-04 06:52 | 50.82803 | 6.19017 | 26531 ft | 378 kts | 266° |
| 2026-05-04 06:52 | 50.82843 | 6.14808 | 26952 ft | 379 kts | 266° |
| 2026-05-04 06:52 | 50.82881 | 6.10622 | 27361 ft | 381 kts | 266° |
| 2026-05-04 06:53 | 50.82917 | 6.06428 | 27725 ft | 383 kts | 266° |
| 2026-05-04 06:53 | 50.82943 | 6.02227 | 28064 ft | 384 kts | 265° |
| 2026-05-04 06:53 | 50.82693 | 5.98051 | 28396 ft | 381 kts | 253° |
| 2026-05-04 06:53 | 50.81767 | 5.94172 | 28737 ft | 378 kts | 240° |
| 2026-05-04 06:54 | 50.80243 | 5.90769 | 29063 ft | 378 kts | 227° |
| 2026-05-04 06:54 | 50.78250 | 5.88095 | 29363 ft | 381 kts | 214° |
| 2026-05-04 06:54 | 50.75950 | 5.86011 | 29698 ft | 382 kts | 211° |
| 2026-05-04 06:54 | 50.73611 | 5.83957 | 30038 ft | 383 kts | 211° |
| 2026-05-04 06:55 | 50.71260 | 5.81911 | 30348 ft | 385 kts | 211° |
| 2026-05-04 06:55 | 50.68920 | 5.79891 | 30647 ft | 386 kts | 211° |
| 2026-05-04 06:55 | 50.66556 | 5.77859 | 30892 ft | 387 kts | 210° |
| 2026-05-04 06:55 | 50.64112 | 5.76030 | 31078 ft | 392 kts | 205° |
| 2026-05-04 06:56 | 50.61547 | 5.74565 | 31278 ft | 396 kts | 200° |
| 2026-05-04 06:57 | 50.41848 | 5.74231 | 32817 ft | 415 kts | 178° |
| 2026-05-04 06:58 | 50.38994 | 5.74778 | 33096 ft | 414 kts | 179° |
| 2026-05-04 06:58 | 50.36144 | 5.75320 | 33327 ft | 413 kts | 178° |
| 2026-05-04 06:58 | 50.33306 | 5.75857 | 33548 ft | 413 kts | 178° |
| 2026-05-04 06:58 | 50.30441 | 5.76398 | 33773 ft | 413 kts | 178° |
| 2026-05-04 06:59 | 50.27592 | 5.76994 | 34004 ft | 414 kts | 176° |
| 2026-05-04 06:59 | 50.24746 | 5.77819 | 34232 ft | 416 kts | 173° |
| 2026-05-04 06:59 | 50.21953 | 5.78867 | 34442 ft | 417 kts | 171° |
| 2026-05-04 06:59 | 50.19130 | 5.80121 | 34641 ft | 418 kts | 169° |
| 2026-05-04 07:01 | 49.99608 | 5.88764 | 35786 ft | 418 kts | 169° |
| 2026-05-04 07:01 | 49.96798 | 5.90005 | 35889 ft | 419 kts | 169° |
| 2026-05-04 07:02 | 49.93973 | 5.91250 | 36003 ft | 420 kts | 169° |
| 2026-05-04 07:02 | 49.91170 | 5.92486 | 36109 ft | 420 kts | 169° |
| 2026-05-04 07:02 | 49.88366 | 5.93721 | 36232 ft | 420 kts | 169° |
| 2026-05-04 07:02 | 49.85561 | 5.94954 | 36351 ft | 421 kts | 169° |
| 2026-05-04 07:03 | 49.82722 | 5.96199 | 36467 ft | 421 kts | 169° |
| 2026-05-04 07:03 | 49.79933 | 5.97423 | 36566 ft | 421 kts | 169° |
| 2026-05-04 07:03 | 49.74264 | 5.99905 | 36767 ft | 422 kts | 168° |
| 2026-05-04 07:04 | 49.68630 | 6.02366 | 36947 ft | 424 kts | 168° |
| 2026-05-04 07:04 | 49.62912 | 6.04861 | 37000 ft | 426 kts | 168° |
| 2026-05-04 07:05 | 49.57228 | 6.07331 | 37002 ft | 425 kts | 168° |
| 2026-05-04 07:05 | 49.51606 | 6.10332 | 37011 ft | 429 kts | 161° |
| 2026-05-04 07:06 | 49.43677 | 6.16799 | 37006 ft | 435 kts | 151° |
| 2026-05-04 07:07 | 49.38814 | 6.22367 | 37008 ft | 439 kts | 146° |
| 2026-05-04 07:09 | 49.19788 | 6.45826 | 37010 ft | 440 kts | 146° |
| 2026-05-04 07:09 | 49.15005 | 6.51682 | 37011 ft | 440 kts | 146° |
| 2026-05-04 07:10 | 49.10211 | 6.57539 | 37015 ft | 439 kts | 145° |
| 2026-05-04 07:12 | 48.88715 | 6.71169 | 37022 ft | 419 kts | 184° |
| 2026-05-04 07:12 | 48.82892 | 6.70968 | 37020 ft | 420 kts | 185° |
| 2026-05-04 07:13 | 48.77057 | 6.70737 | 37023 ft | 420 kts | 185° |
| 2026-05-04 07:13 | 48.71197 | 6.70509 | 37023 ft | 420 kts | 185° |
| 2026-05-04 07:14 | 48.56556 | 6.69951 | 37025 ft | 420 kts | 185° |
| 2026-05-04 07:15 | 48.50735 | 6.69732 | 37028 ft | 420 kts | 185° |
| 2026-05-04 07:15 | 48.44873 | 6.69512 | 37032 ft | 419 kts | 185° |
| 2026-05-04 07:16 | 48.39061 | 6.69292 | 37207 ft | 420 kts | 185° |
| 2026-05-04 07:16 | 48.36106 | 6.69178 | 37370 ft | 419 kts | 185° |
| 2026-05-04 07:16 | 48.33226 | 6.69066 | 37486 ft | 418 kts | 185° |
| 2026-05-04 07:17 | 48.30292 | 6.68951 | 37590 ft | 418 kts | 185° |
| 2026-05-04 07:17 | 48.27380 | 6.68840 | 37683 ft | 419 kts | 185° |
| 2026-05-04 07:17 | 48.21581 | 6.68620 | 37865 ft | 419 kts | 185° |
| 2026-05-04 07:18 | 48.15714 | 6.68395 | 38036 ft | 419 kts | 184° |
| 2026-05-04 07:18 | 48.09894 | 6.68168 | 38183 ft | 419 kts | 184° |
| 2026-05-04 07:19 | 48.04096 | 6.67946 | 38331 ft | 419 kts | 184° |
| 2026-05-04 07:19 | 47.98268 | 6.67725 | 38432 ft | 419 kts | 184° |
| 2026-05-04 07:20 | 47.92442 | 6.67504 | 38530 ft | 420 kts | 184° |
| 2026-05-04 07:20 | 47.86620 | 6.67286 | 38631 ft | 420 kts | 185° |
| 2026-05-04 07:22 | 47.66171 | 6.66520 | 38992 ft | 420 kts | 184° |
| 2026-05-04 07:22 | 47.63281 | 6.66413 | 39044 ft | 421 kts | 184° |
| 2026-05-04 07:23 | 47.57418 | 6.66197 | 39030 ft | 421 kts | 184° |
| 2026-05-04 07:23 | 47.51563 | 6.65980 | 39036 ft | 421 kts | 184° |
| 2026-05-04 07:24 | 47.45754 | 6.65375 | 39030 ft | 419 kts | 192° |
| 2026-05-04 07:24 | 47.40146 | 6.63104 | 39031 ft | 417 kts | 204° |
| 2026-05-04 07:26 | 47.21755 | 6.43089 | 39024 ft | 414 kts | 221° |
| 2026-05-04 07:27 | 47.17359 | 6.37610 | 39032 ft | 415 kts | 221° |
| 2026-05-04 07:27 | 47.12948 | 6.32174 | 39022 ft | 414 kts | 218° |
| 2026-05-04 07:28 | 47.08070 | 6.27609 | 39031 ft | 416 kts | 208° |
| 2026-05-04 07:28 | 47.02713 | 6.24426 | 39026 ft | 418 kts | 198° |
| 2026-05-04 07:29 | 46.96966 | 6.22706 | 39034 ft | 421 kts | 188° |
| 2026-05-04 07:29 | 46.91127 | 6.21890 | 39036 ft | 421 kts | 188° |
| 2026-05-04 07:30 | 46.85304 | 6.21114 | 39034 ft | 421 kts | 188° |
| 2026-05-04 07:30 | 46.79475 | 6.20338 | 39031 ft | 421 kts | 188° |
| 2026-05-04 07:31 | 46.73619 | 6.19559 | 39048 ft | 421 kts | 188° |
| 2026-05-04 07:33 | 46.50245 | 6.16466 | 39042 ft | 422 kts | 188° |
| 2026-05-04 07:33 | 46.44392 | 6.15698 | 39037 ft | 421 kts | 188° |
| 2026-05-04 07:34 | 46.38544 | 6.14931 | 39045 ft | 422 kts | 188° |
| 2026-05-04 07:34 | 46.32714 | 6.14169 | 39043 ft | 421 kts | 188° |
| 2026-05-04 07:35 | 46.26895 | 6.13407 | 39055 ft | 421 kts | 188° |
| 2026-05-04 07:35 | 46.21112 | 6.12237 | 39054 ft | 419 kts | 192° |
| 2026-05-04 07:36 | 46.15328 | 6.10954 | 39052 ft | 419 kts | 191° |
| 2026-05-04 07:38 | 45.92194 | 6.05846 | 39056 ft | 420 kts | 192° |
| 2026-05-04 07:38 | 45.86413 | 6.04575 | 39056 ft | 419 kts | 192° |
| 2026-05-04 07:39 | 45.80652 | 6.03302 | 39060 ft | 419 kts | 192° |
| 2026-05-04 07:39 | 45.74923 | 6.02032 | 39062 ft | 419 kts | 192° |
| 2026-05-04 07:40 | 45.69149 | 6.00757 | 39060 ft | 419 kts | 192° |
| 2026-05-04 07:40 | 45.63367 | 5.99487 | 39060 ft | 419 kts | 192° |
| 2026-05-04 07:41 | 45.57614 | 5.98227 | 39065 ft | 419 kts | 192° |
| 2026-05-04 07:41 | 45.51850 | 5.96967 | 39067 ft | 419 kts | 192° |
| 2026-05-04 07:42 | 45.46076 | 5.95541 | 39070 ft | 418 kts | 195° |
| 2026-05-04 07:42 | 45.40403 | 5.93754 | 39087 ft | 417 kts | 195° |
| 2026-05-04 07:43 | 45.34772 | 5.92002 | 39092 ft | 417 kts | 195° |
| 2026-05-04 07:43 | 45.29111 | 5.90240 | 39082 ft | 416 kts | 195° |
| 2026-05-04 07:44 | 45.23438 | 5.88477 | 39085 ft | 416 kts | 195° |
| 2026-05-04 07:44 | 45.17775 | 5.86721 | 39081 ft | 417 kts | 195° |
| 2026-05-04 07:45 | 45.12070 | 5.84953 | 39080 ft | 417 kts | 195° |
| 2026-05-04 07:45 | 45.06435 | 5.83209 | 39081 ft | 417 kts | 195° |
| 2026-05-04 07:46 | 45.00764 | 5.81461 | 39085 ft | 417 kts | 195° |
| 2026-05-04 07:46 | 44.95095 | 5.79715 | 39088 ft | 417 kts | 195° |
| 2026-05-04 07:47 | 44.89420 | 5.77973 | 39089 ft | 417 kts | 195° |
| 2026-05-04 07:49 | 44.66752 | 5.71045 | 39077 ft | 417 kts | 195° |
| 2026-05-04 07:49 | 44.61075 | 5.69318 | 39080 ft | 417 kts | 195° |
| 2026-05-04 07:50 | 44.55407 | 5.67601 | 39075 ft | 417 kts | 195° |
| 2026-05-04 07:50 | 44.49726 | 5.65881 | 39073 ft | 418 kts | 195° |
| 2026-05-04 07:51 | 44.44029 | 5.64161 | 39073 ft | 418 kts | 196° |
| 2026-05-04 07:51 | 44.38450 | 5.62253 | 39066 ft | 415 kts | 200° |
| 2026-05-04 07:52 | 44.33003 | 5.59579 | 39061 ft | 413 kts | 205° |
| 2026-05-04 07:52 | 44.27662 | 5.56656 | 39060 ft | 414 kts | 204° |
| 2026-05-04 07:54 | 44.06195 | 5.44968 | 39045 ft | 415 kts | 205° |
| 2026-05-04 07:55 | 44.00821 | 5.42052 | 39049 ft | 415 kts | 205° |
| 2026-05-04 07:55 | 43.95450 | 5.39144 | 39042 ft | 414 kts | 205° |
| 2026-05-04 07:56 | 43.90100 | 5.36245 | 39043 ft | 413 kts | 205° |
| 2026-05-04 07:56 | 43.84743 | 5.33351 | 39043 ft | 414 kts | 204° |
| 2026-05-04 07:57 | 43.79410 | 5.30474 | 39041 ft | 414 kts | 204° |
| 2026-05-04 07:57 | 43.74020 | 5.27575 | 39037 ft | 414 kts | 204° |
| 2026-05-04 07:58 | 43.68658 | 5.24695 | 39031 ft | 413 kts | 204° |
| 2026-05-04 07:58 | 43.63338 | 5.21845 | 39039 ft | 413 kts | 204° |
| 2026-05-04 07:59 | 43.57984 | 5.18982 | 39033 ft | 412 kts | 205° |
| 2026-05-04 07:59 | 43.52645 | 5.16131 | 39035 ft | 412 kts | 205° |
| 2026-05-04 08:00 | 43.47322 | 5.13297 | 39034 ft | 412 kts | 205° |
| 2026-05-04 08:02 | 43.27597 | 4.98261 | 39026 ft | 404 kts | 217° |
| 2026-05-04 08:02 | 43.22984 | 4.93936 | 39023 ft | 404 kts | 217° |
| 2026-05-04 08:03 | 43.18351 | 4.89593 | 39021 ft | 403 kts | 217° |
| 2026-05-04 08:03 | 43.13750 | 4.85285 | 39017 ft | 403 kts | 217° |
| 2026-05-04 08:04 | 43.09121 | 4.80958 | 39017 ft | 403 kts | 217° |
| 2026-05-04 08:04 | 43.04443 | 4.76825 | 39017 ft | 405 kts | 213° |
| 2026-05-04 08:05 | 42.99516 | 4.73071 | 39017 ft | 405 kts | 213° |
| 2026-05-04 08:05 | 42.94619 | 4.69347 | 39012 ft | 403 kts | 213° |
| 2026-05-04 08:06 | 42.89713 | 4.65627 | 39012 ft | 403 kts | 213° |
| 2026-05-04 08:06 | 42.84829 | 4.61936 | 39003 ft | 401 kts | 213° |
| 2026-05-04 08:08 | 42.65362 | 4.47297 | 38990 ft | 400 kts | 213° |
| 2026-05-04 08:11 | 42.43562 | 4.31030 | 38991 ft | 397 kts | 213° |
| 2026-05-04 08:11 | 42.36334 | 4.25664 | 38993 ft | 396 kts | 213° |
| 2026-05-04 08:12 | 42.31523 | 4.22103 | 38989 ft | 395 kts | 213° |
| 2026-05-04 08:12 | 42.26690 | 4.18530 | 38989 ft | 394 kts | 213° |
| 2026-05-04 08:13 | 42.21906 | 4.15001 | 38988 ft | 394 kts | 213° |
| 2026-05-04 08:13 | 42.17102 | 4.11462 | 38988 ft | 393 kts | 213° |
| 2026-05-04 08:14 | 42.12315 | 4.07939 | 38987 ft | 393 kts | 213° |
| 2026-05-04 08:16 | 41.92880 | 3.94696 | 38984 ft | 395 kts | 206° |
| 2026-05-04 08:16 | 41.87617 | 3.92523 | 38987 ft | 400 kts | 200° |
| 2026-05-04 08:17 | 41.82144 | 3.91025 | 38984 ft | 404 kts | 197° |
| 2026-05-04 08:17 | 41.76585 | 3.89725 | 38985 ft | 405 kts | 197° |
| 2026-05-04 08:19 | 41.54414 | 3.84602 | 38984 ft | 405 kts | 197° |
| 2026-05-04 08:20 | 41.48856 | 3.83325 | 38983 ft | 404 kts | 197° |
| 2026-05-04 08:20 | 41.43314 | 3.82059 | 38986 ft | 404 kts | 197° |
| 2026-05-04 08:21 | 41.37767 | 3.80791 | 38984 ft | 405 kts | 197° |
| 2026-05-04 08:21 | 41.32231 | 3.79531 | 38983 ft | 404 kts | 197° |
| 2026-05-04 08:22 | 41.26689 | 3.78271 | 38981 ft | 404 kts | 197° |
| 2026-05-04 08:24 | 41.07946 | 3.71854 | 38983 ft | 394 kts | 208° |
| 2026-05-04 08:24 | 41.05382 | 3.70540 | 38986 ft | 394 kts | 207° |
| 2026-05-04 08:24 | 41.00296 | 3.67937 | 38563 ft | 391 kts | 208° |
| 2026-05-04 08:25 | 40.97763 | 3.66638 | 37694 ft | 393 kts | 208° |
| 2026-05-04 08:25 | 40.95198 | 3.65318 | 36607 ft | 397 kts | 207° |
| 2026-05-04 08:25 | 40.92651 | 3.64008 | 35778 ft | 398 kts | 207° |
| 2026-05-04 08:25 | 40.90072 | 3.62687 | 35082 ft | 397 kts | 207° |
| 2026-05-04 08:26 | 40.87502 | 3.61369 | 34402 ft | 396 kts | 207° |
| 2026-05-04 08:27 | 40.69638 | 3.52255 | 28766 ft | 386 kts | 206° |
| 2026-05-04 08:28 | 40.67152 | 3.50990 | 28041 ft | 385 kts | 206° |
| 2026-05-04 08:28 | 40.64653 | 3.49719 | 27297 ft | 383 kts | 206° |
| 2026-05-04 08:28 | 40.62186 | 3.48464 | 26568 ft | 382 kts | 206° |
| 2026-05-04 08:28 | 40.59714 | 3.47209 | 25873 ft | 380 kts | 206° |
| 2026-05-04 08:29 | 40.57279 | 3.45976 | 25254 ft | 376 kts | 206° |
| 2026-05-04 08:29 | 40.54843 | 3.44742 | 24665 ft | 372 kts | 206° |
| 2026-05-04 08:29 | 40.52433 | 3.43524 | 24082 ft | 369 kts | 206° |
| 2026-05-04 08:31 | 40.35219 | 3.39705 | 20337 ft | 363 kts | 183° |
| 2026-05-04 08:33 | 40.17903 | 3.40709 | 16904 ft | 350 kts | 182° |
| 2026-05-04 08:33 | 40.15492 | 3.40846 | 16452 ft | 347 kts | 182° |
| 2026-05-04 08:35 | 39.99607 | 3.41753 | 14286 ft | 303 kts | 182° |
| 2026-05-04 08:35 | 39.97510 | 3.41867 | 13907 ft | 300 kts | 182° |
| 2026-05-04 08:35 | 39.95445 | 3.41980 | 13523 ft | 298 kts | 181° |
| 2026-05-04 08:35 | 39.93390 | 3.42094 | 13137 ft | 296 kts | 181° |
| 2026-05-04 08:37 | 39.81312 | 3.42779 | 10928 ft | 282 kts | 181° |
| 2026-05-04 08:37 | 39.79377 | 3.42887 | 10578 ft | 280 kts | 181° |
| 2026-05-04 08:37 | 39.77444 | 3.42994 | 10211 ft | 278 kts | 181° |
| 2026-05-04 08:38 | 39.75510 | 3.43102 | 9849 ft | 276 kts | 181° |
| 2026-05-04 08:38 | 39.73596 | 3.43162 | 9481 ft | 273 kts | 188° |
| 2026-05-04 08:38 | 39.71856 | 3.42427 | 9104 ft | 267 kts | 215° |
| 2026-05-04 08:40 | 39.70324 | 3.26610 | 6641 ft | 261 kts | 269° |
| 2026-05-04 08:40 | 39.70398 | 3.24245 | 6297 ft | 260 kts | 269° |
| 2026-05-04 08:40 | 39.70468 | 3.21926 | 5963 ft | 259 kts | 269° |
| 2026-05-04 08:41 | 39.70537 | 3.19608 | 5625 ft | 258 kts | 269° |
| 2026-05-04 08:41 | 39.70606 | 3.17280 | 5287 ft | 257 kts | 269° |
| 2026-05-04 08:41 | 39.70676 | 3.14955 | 4949 ft | 256 kts | 270° |
| 2026-05-04 08:41 | 39.70746 | 3.12663 | 4622 ft | 255 kts | 270° |
| 2026-05-04 08:42 | 39.70811 | 3.10396 | 4495 ft | 244 kts | 268° |
| 2026-05-04 08:42 | 39.70565 | 3.08286 | 4463 ft | 228 kts | 249° |
| 2026-05-04 08:42 | 39.69871 | 3.06480 | 4171 ft | 226 kts | 238° |
| 2026-05-04 08:42 | 39.69038 | 3.04734 | 3880 ft | 225 kts | 237° |
| 2026-05-04 08:43 | 39.68208 | 3.03018 | 3605 ft | 224 kts | 237° |
| 2026-05-04 08:43 | 39.67390 | 3.01309 | 3336 ft | 223 kts | 237° |
| 2026-05-04 08:43 | 39.66575 | 2.99580 | 3070 ft | 221 kts | 238° |
| 2026-05-04 08:43 | 39.65811 | 2.97889 | 2815 ft | 220 kts | 239° |
| 2026-05-04 08:44 | 39.65032 | 2.96185 | 2562 ft | 217 kts | 238° |
| 2026-05-04 08:44 | 39.64267 | 2.94548 | 2559 ft | 212 kts | 237° |
| 2026-05-04 08:46 | 39.59440 | 2.84396 | 1461 ft | 163 kts | 237° |
| 2026-05-04 08:46 | 39.58875 | 2.83203 | 1233 ft | 148 kts | 237° |
| 2026-05-04 08:46 | 39.58365 | 2.82126 | 1033 ft | 136 kts | 237° |
| 2026-05-04 08:46 | 39.57867 | 2.81077 | 874 ft | 135 kts | 237° |
| 2026-05-04 08:47 | 39.57376 | 2.80040 | 709 ft | 135 kts | 237° |
| 2026-05-04 08:47 | 39.56887 | 2.79008 | 539 ft | 134 kts | 237° |
| 2026-05-04 08:47 | 39.56401 | 2.77985 | 364 ft | 134 kts | 237° |
| 2026-05-04 08:47 | 39.55922 | 2.76959 | 204 ft | 133 kts | 237° |
| 2026-05-04 08:48 | 39.55438 | 2.75946 | 31 ft | 131 kts | 236° |
| 2026-05-04 08:48 | 39.55018 | 2.75065 | 19 ft | 90 kts | 238° |
| 2026-05-04 08:48 | 39.54813 | 2.74552 | 28 ft | 48 kts | 259° |
| 2026-05-04 08:48 | 39.54797 | 2.74206 | 35 ft | 31 kts | 266° |
| 2026-05-04 08:49 | 39.54721 | 2.73983 | 39 ft | 24 kts | 239° |
| 2026-05-04 08:50 | 39.54718 | 2.73674 | 39 ft | 0 kts | 59° |